Time;durP1;ratioP1;P1;durP2;ratioP2;P2;SDS_P1;SDS_P2;PMS_P1;PMS_P2;Temp;Humidity;BMP_temperature;BMP_pressure;BME280_temperature;BME280_humidity;BME280_pressure;Samples;Min_cycle;Max_cycle;Signal;HPM_P1;HPM_P2
2022/10/06 00:01:36;;;;;;;5.07;2.70;;;;;;;14.87;69.76;101134.53;5091490;28;20293;-34
2022/10/06 00:04:01;;;;;;;5.05;3.08;;;;;;;14.89;70.41;101156.66;5093646;28;20320;-34
2022/10/06 00:06:28;;;;;;;4.13;2.90;;;;;;;14.90;70.88;101157.53;5103382;28;20040;-34
2022/10/06 00:08:53;;;;;;;4.38;2.72;;;;;;;14.89;71.71;101156.66;5108513;27;20023;-35
2022/10/06 00:11:18;;;;;;;4.30;2.93;;;;;;;14.92;71.16;101145.97;5088832;28;20031;-34
2022/10/06 00:13:44;;;;;;;3.97;3.05;;;;;;;14.95;72.46;101168.94;5116196;27;20326;-34
2022/10/06 00:16:17;;;;;;;4.60;2.90;;;;;;;15.00;71.51;101173.25;5116759;27;20024;-34
2022/10/06 00:18:43;;;;;;;3.70;2.42;;;;;;;15.06;71.80;101188.19;5107257;28;20288;-34
2022/10/06 00:21:09;;;;;;;4.38;2.80;;;;;;;15.09;71.60;101185.47;5096934;28;20027;-34
2022/10/06 00:23:35;;;;;;;3.95;2.70;;;;;;;15.13;71.79;101184.50;5117606;27;20032;-34
2022/10/06 00:26:00;;;;;;;4.30;2.72;;;;;;;15.17;72.03;101187.97;5091926;28;20123;-34
2022/10/06 00:28:25;;;;;;;4.38;2.90;;;;;;;15.22;71.12;101199.41;5095864;28;20035;-34
2022/10/06 00:30:52;;;;;;;4.25;2.85;;;;;;;15.27;70.79;101188.66;5101093;28;20094;-34
2022/10/06 00:33:18;;;;;;;4.00;2.67;;;;;;;15.32;70.38;101180.59;5102941;28;20027;-34
2022/10/06 00:35:44;;;;;;;4.05;2.80;;;;;;;15.34;70.27;101182.31;5101325;27;20054;-34
2022/10/06 00:38:11;;;;;;;8.02;3.00;;;;;;;15.38;69.95;101188.44;5082584;28;20393;-34
2022/10/06 00:40:45;;;;;;;3.85;3.00;;;;;;;15.43;69.98;101181.25;5126149;27;20039;-34
2022/10/06 00:43:41;;;;;;;5.38;3.00;;;;;;;15.45;69.49;101189.19;5082496;28;20111;-34
2022/10/06 00:46:27;;;;;;;4.78;2.75;;;;;;;15.49;69.12;101193.53;5100284;28;20059;-34
2022/10/06 00:48:59;;;;;;;4.22;2.58;;;;;;;15.51;69.23;101191.72;5092602;28;20491;-34
2022/10/06 00:51:26;;;;;;;3.67;2.70;;;;;;;15.51;69.03;101192.56;5112144;28;20038;-34
2022/10/06 00:53:51;;;;;;;4.03;2.88;;;;;;;15.54;68.80;101196.09;5090686;28;20008;-34
2022/10/06 00:56:16;;;;;;;4.80;2.72;;;;;;;15.54;68.69;101188.13;5111438;28;20140;-34
2022/10/06 00:58:42;;;;;;;3.90;2.30;;;;;;;15.54;68.42;101188.13;5094546;28;20109;-34
2022/10/06 01:01:08;;;;;;;5.03;2.88;;;;;;;15.54;68.15;101182.81;5103468;28;20105;-34
2022/10/06 01:03:36;;;;;;;4.40;2.60;;;;;;;15.54;68.11;101186.31;5099507;28;20035;-34
2022/10/06 01:06:03;;;;;;;3.72;2.53;;;;;;;15.54;67.90;101181.00;5108510;28;20054;-34
2022/10/06 01:08:28;;;;;;;4.30;2.55;;;;;;;15.54;67.75;101175.69;5104018;27;20462;-34
2022/10/06 01:10:54;;;;;;;3.80;2.80;;;;;;;15.53;67.49;101179.25;5111732;28;20027;-34
2022/10/06 01:13:19;;;;;;;4.43;2.60;;;;;;;15.52;67.78;101170.44;5111778;27;20027;-34
2022/10/06 01:16:09;;;;;;;3.80;2.67;;;;;;;15.54;67.59;101169.50;5102163;27;20369;-34
2022/10/06 01:18:37;;;;;;;4.22;2.80;;;;;;;15.52;67.80;101175.75;5084221;28;20039;-34
2022/10/06 01:21:16;;;;;;;3.65;2.55;;;;;;;15.51;67.81;101165.16;5107091;27;20020;-34
2022/10/06 01:23:41;;;;;;;4.50;2.90;;;;;;;15.49;68.23;101173.16;5115297;27;20041;-34
2022/10/06 01:26:09;;;;;;;3.08;2.40;;;;;;;15.47;68.43;101184.72;5090667;28;20039;-34
2022/10/06 01:28:36;;;;;;;3.67;2.60;;;;;;;15.47;68.48;101185.59;5118914;27;20123;-34
2022/10/06 01:31:03;;;;;;;4.72;2.80;;;;;;;15.47;68.95;101185.59;5107097;27;20049;-34
2022/10/06 01:33:28;;;;;;;3.97;2.80;;;;;;;15.46;69.04;101194.47;5094956;28;20020;-34
2022/10/06 01:35:55;;;;;;;4.25;2.80;;;;;;;15.43;69.28;101197.19;5105578;27;20406;-34
2022/10/06 01:38:20;;;;;;;7.88;2.72;;;;;;;15.43;69.74;101189.22;5082047;28;20035;-34
2022/10/06 01:40:47;;;;;;;3.90;2.60;;;;;;;15.42;69.63;101197.22;5107186;28;20032;-34
2022/10/06 01:43:12;;;;;;;5.57;2.58;;;;;;;15.40;69.79;101199.91;5113565;27;20421;-34
2022/10/06 01:45:37;;;;;;;5.50;2.70;;;;;;;15.42;69.86;101191.91;5107802;28;20039;-34
2022/10/06 01:48:03;;;;;;;4.43;2.67;;;;;;;15.41;69.89;101199.03;5095687;28;20277;-34
2022/10/06 01:50:28;;;;;;;3.80;2.53;;;;;;;15.43;69.63;101202.50;5115218;28;20427;-34
2022/10/06 01:52:56;;;;;;;4.90;2.70;;;;;;;15.45;69.41;101207.78;5113388;27;20477;-34
2022/10/06 01:55:22;;;;;;;3.97;2.67;;;;;;;15.41;69.77;101212.31;5112196;27;20287;-34
2022/10/06 01:57:47;;;;;;;6.63;2.85;;;;;;;15.42;69.60;101214.06;5097935;27;20493;-34
2022/10/06 02:00:13;;;;;;;4.80;2.60;;;;;;;15.41;70.10;101216.75;5111212;27;20035;-34
2022/10/06 02:02:38;;;;;;;3.97;2.50;;;;;;;15.39;70.30;101224.75;5095528;28;20281;-34
2022/10/06 02:05:04;;;;;;;4.18;2.75;;;;;;;15.40;70.34;101226.47;5103987;28;20628;-34
2022/10/06 02:07:30;;;;;;;3.25;2.47;;;;;;;15.41;69.96;101230.03;5094326;27;20024;-34
2022/10/06 02:09:55;;;;;;;5.03;2.70;;;;;;;15.42;69.78;101230.00;5090365;28;20072;-34
2022/10/06 02:12:21;;;;;;;4.37;2.50;;;;;;;15.43;69.69;101239.72;5120299;27;20161;-34
2022/10/06 02:14:46;;;;;;;3.87;2.60;;;;;;;15.43;69.73;101237.06;5108734;27;20326;-34
2022/10/06 02:17:11;;;;;;;5.00;2.60;;;;;;;15.42;69.67;101245.06;5112611;28;20372;-34
2022/10/06 02:19:37;;;;;;;3.95;2.70;;;;;;;15.41;69.83;101252.19;5119135;27;20312;-34
2022/10/06 02:22:02;;;;;;;3.70;2.30;;;;;;;15.42;69.57;101261.00;5103528;28;20115;-34
2022/10/06 02:24:29;;;;;;;3.72;2.60;;;;;;;15.43;69.44;101268.06;5112599;28;20030;-34
2022/10/06 02:26:54;;;;;;;4.45;2.63;;;;;;;15.43;69.48;101268.97;5093548;28;20024;-34
2022/10/06 02:29:19;;;;;;;5.18;3.03;;;;;;;15.43;69.14;101271.63;5119211;27;20382;-34
2022/10/06 02:31:45;;;;;;;3.33;2.60;;;;;;;15.43;69.04;101279.59;5116789;27;20050;-34
2022/10/06 02:34:11;;;;;;;4.32;2.53;;;;;;;15.43;69.03;101279.59;5112790;27;20016;-34
2022/10/06 02:36:37;;;;;;;4.60;2.70;;;;;;;15.42;68.88;101293.78;5112867;28;20228;-34
2022/10/06 02:39:03;;;;;;;3.42;2.50;;;;;;;15.42;68.73;101293.78;5093944;28;20367;-34
2022/10/06 02:41:28;;;;;;;5.05;2.72;;;;;;;15.41;68.68;101297.38;5098762;27;20034;-34
2022/10/06 02:43:54;;;;;;;3.87;2.43;;;;;;;15.41;68.77;101305.34;5120802;27;20021;-34
2022/10/06 02:46:21;;;;;;;4.35;2.35;;;;;;;15.41;68.64;101291.16;5113244;28;20295;-34
2022/10/06 02:48:46;;;;;;;4.22;2.60;;;;;;;15.38;68.59;101302.72;5095288;28;20027;-34
2022/10/06 02:51:14;;;;;;;3.92;2.75;;;;;;;15.39;68.56;101309.78;5094874;28;20359;-34
2022/10/06 02:53:41;;;;;;;3.70;2.65;;;;;;;15.38;68.75;101313.38;5112427;27;20027;-34
2022/10/06 02:56:14;;;;;;;4.00;2.60;;;;;;;15.38;68.79;101318.69;5119601;27;20032;-34
2022/10/06 02:58:41;;;;;;;4.38;2.90;;;;;;;15.36;68.53;101325.78;5113582;27;20389;-34
2022/10/06 03:01:09;;;;;;;4.32;2.47;;;;;;;15.36;68.74;101325.78;5091889;28;20028;-34
2022/10/06 03:03:34;;;;;;;4.10;2.50;;;;;;;15.35;69.14;101335.56;5108795;27;20015;-34
2022/10/06 03:06:20;;;;;;;5.07;2.80;;;;;;;15.36;68.91;101341.75;5106408;27;20024;-34
2022/10/06 03:08:51;;;;;;;3.20;2.60;;;;;;;15.36;69.02;101336.41;5102532;27;20050;-34
2022/10/06 03:11:20;;;;;;;3.00;2.28;;;;;;;15.36;69.13;101344.41;5104753;27;20032;-34
2022/10/06 03:13:46;;;;;;;4.05;2.60;;;;;;;15.35;69.16;101348.84;5100968;27;20469;-34
2022/10/06 03:16:16;;;;;;;3.08;2.35;;;;;;;15.34;69.06;101359.50;5108902;27;20031;-34
2022/10/06 03:21:19;;;;;;;4.03;2.67;;;;;;;15.37;69.29;101356.78;5107648;28;20039;-32
2022/10/06 03:23:47;;;;;;;4.15;2.50;;;;;;;15.36;69.25;101360.34;5090283;28;20048;-32
2022/10/06 03:26:14;;;;;;;4.63;2.45;;;;;;;15.36;69.54;101369.19;5105209;28;20031;-32
2022/10/06 03:28:40;;;;;;;4.03;2.75;;;;;;;15.36;69.30;101374.53;5106163;28;20115;-32
2022/10/06 03:31:06;;;;;;;3.67;2.53;;;;;;;15.38;69.47;101393.09;5084676;27;20024;-32
2022/10/06 03:33:32;;;;;;;4.90;2.58;;;;;;;15.38;70.18;101438.28;5087645;28;20023;-32
2022/10/06 03:36:04;;;;;;;2.90;2.13;;;;;;;15.36;71.08;101448.94;5109412;28;20598;-32
2022/10/06 03:38:31;;;;;;;2.55;1.80;;;;;;;15.35;71.14;101448.97;5100017;28;20115;-32
2022/10/06 03:41:08;;;;;;;5.03;1.80;;;;;;;15.34;70.85;101457.84;5085248;28;20030;-32
2022/10/06 03:43:35;;;;;;;2.00;1.30;;;;;;;15.35;70.46;101472.88;5107476;27;20024;-32
2022/10/06 03:46:01;;;;;;;4.28;1.42;;;;;;;15.35;70.49;101472.88;5106683;28;20673;-32
2022/10/06 03:48:28;;;;;;;3.00;1.30;;;;;;;15.35;70.35;101473.78;5113238;28;20389;-32
2022/10/06 03:50:59;;;;;;;1.80;1.02;;;;;;;15.34;70.08;101472.00;5113125;27;20129;-32
2022/10/06 03:53:27;;;;;;;2.15;1.20;;;;;;;15.34;70.08;101477.31;5107967;27;20603;-32
2022/10/06 03:56:07;;;;;;;2.65;1.10;;;;;;;15.34;69.86;101473.78;5110768;27;20036;-32
2022/10/06 03:58:35;;;;;;;1.52;1.00;;;;;;;15.34;69.99;101481.75;5110728;28;20034;-32
2022/10/06 04:01:14;;;;;;;1.98;1.00;;;;;;;15.34;69.75;101487.06;5090775;28;20023;-32
2022/10/06 04:03:39;;;;;;;3.22;0.95;;;;;;;15.33;69.89;101490.63;5110755;28;20019;-32
2022/10/06 04:06:06;;;;;;;2.50;1.02;;;;;;;15.33;69.74;101506.56;5106923;27;20389;-32
2022/10/06 04:08:33;;;;;;;1.50;0.90;;;;;;;15.30;69.80;101504.84;5103480;27;20024;-32
2022/10/06 04:11:15;;;;;;;3.35;0.90;;;;;;;15.29;69.73;101507.50;5104390;28;20019;-31
2022/10/06 04:13:45;;;;;;;1.55;0.80;;;;;;;15.28;69.58;101514.63;5086600;27;20027;-32
2022/10/06 04:16:14;;;;;;;1.95;0.80;;;;;;;15.29;69.71;101513.72;5109295;28;20023;-32
2022/10/06 04:18:41;;;;;;;1.77;0.70;;;;;;;15.27;69.67;101519.06;5105526;28;20031;-32
2022/10/06 04:21:08;;;;;;;1.90;0.60;;;;;;;15.26;69.65;101533.25;5108231;28;20019;-32
2022/10/06 04:23:35;;;;;;;1.55;0.57;;;;;;;15.26;69.76;101535.91;5106908;27;20035;-32
2022/10/06 04:26:01;;;;;;;1.48;0.70;;;;;;;15.26;69.84;101533.25;5100352;28;20047;-32
2022/10/06 04:28:27;;;;;;;1.70;0.70;;;;;;;15.24;69.97;101544.81;5113303;28;20096;-32
2022/10/06 04:30:58;;;;;;;1.23;0.63;;;;;;;15.22;69.85;101552.81;5086142;28;20023;-32
2022/10/06 04:33:25;;;;;;;1.05;0.60;;;;;;;15.24;69.82;101558.09;5109723;28;20027;-32
2022/10/06 04:36:01;;;;;;;2.60;0.68;;;;;;;15.23;69.91;101559.88;5094746;28;20053;-32
2022/10/06 04:38:28;;;;;;;0.95;0.50;;;;;;;15.20;69.73;101548.41;5099321;28;20073;-32
2022/10/06 04:41:02;;;;;;;1.05;0.65;;;;;;;15.19;69.88;101558.16;5108020;28;20543;-32
2022/10/06 04:43:27;;;;;;;1.95;0.60;;;;;;;15.17;69.89;101569.72;5084735;28;20031;-32
2022/10/06 04:46:01;;;;;;;1.20;0.50;;;;;;;15.17;69.81;101578.53;5101842;28;20390;-32
2022/10/06 04:48:28;;;;;;;1.05;0.52;;;;;;;15.17;69.69;101570.56;5100623;27;20028;-31
2022/10/06 04:50:58;;;;;;;2.08;0.70;;;;;;;15.16;69.50;101574.13;5103226;28;20038;-32
2022/10/06 04:53:23;;;;;;;1.30;0.50;;;;;;;15.18;69.40;101576.78;5088122;28;20111;-32
2022/10/06 04:55:59;;;;;;;0.95;0.40;;;;;;;15.17;69.25;101585.66;5103448;27;20127;-32
2022/10/06 04:58:26;;;;;;;1.52;0.60;;;;;;;15.15;69.20;101590.97;5098775;28;20240;-32
2022/10/06 05:00:52;;;;;;;2.28;0.70;;;;;;;15.17;69.10;101597.13;5105345;28;20405;-32
2022/10/06 05:03:17;;;;;;;1.48;0.73;;;;;;;15.17;69.08;101602.44;5091376;28;20392;-32
2022/10/06 05:05:42;;;;;;;2.93;0.50;;;;;;;15.15;68.70;101601.63;5103410;28;20401;-32
2022/10/06 05:08:08;;;;;;;1.00;0.50;;;;;;;15.13;68.85;101616.69;5108911;28;20714;-32
2022/10/06 05:10:33;;;;;;;1.20;0.50;;;;;;;15.13;68.78;101627.31;5105491;28;20292;-32
2022/10/06 05:12:58;;;;;;;1.57;0.60;;;;;;;15.12;68.59;101636.19;5090940;28;20433;-32
2022/10/06 05:15:23;;;;;;;1.90;0.75;;;;;;;15.10;68.54;101638.88;5106596;28;20747;-32
2022/10/06 05:17:49;;;;;;;2.03;0.63;;;;;;;15.11;68.39;101650.38;5106349;28;20024;-32
2022/10/06 05:20:14;;;;;;;0.90;0.50;;;;;;;15.09;68.38;101650.41;5112170;28;20028;-32
2022/10/06 05:22:40;;;;;;;2.70;0.75;;;;;;;15.08;68.32;101656.63;5098120;28;20289;-32
2022/10/06 05:25:05;;;;;;;3.15;0.57;;;;;;;15.09;68.19;101674.31;5103110;28;20110;-32
2022/10/06 05:27:31;;;;;;;2.10;0.70;;;;;;;15.08;67.88;101667.25;5112530;28;20020;-32
2022/10/06 05:29:56;;;;;;;2.10;0.60;;;;;;;15.08;68.03;101671.66;5111612;28;20443;-32
2022/10/06 05:32:21;;;;;;;2.43;0.60;;;;;;;15.07;68.10;101675.22;5104597;28;20067;-32
2022/10/06 05:34:47;;;;;;;3.15;0.63;;;;;;;15.05;67.94;101677.00;5104821;28;20356;-32
2022/10/06 05:37:12;;;;;;;3.08;0.68;;;;;;;15.05;67.91;101682.31;5109356;28;20049;-32
2022/10/06 05:39:37;;;;;;;2.78;0.82;;;;;;;15.05;67.90;101688.53;5096384;28;20389;-32
2022/10/06 05:42:03;;;;;;;1.60;0.60;;;;;;;15.05;67.99;101695.59;5110194;28;20016;-32
2022/10/06 05:44:29;;;;;;;2.67;0.70;;;;;;;15.05;67.94;101698.25;5101936;28;20115;-32
2022/10/06 05:46:54;;;;;;;2.47;0.90;;;;;;;15.04;67.86;101702.69;5108612;28;20028;-32
2022/10/06 05:49:20;;;;;;;1.73;0.60;;;;;;;15.04;67.67;101717.78;5112232;28;20027;-32
2022/10/06 05:51:45;;;;;;;1.87;0.60;;;;;;;15.02;67.63;101704.50;5088173;28;20031;-32
2022/10/06 05:54:13;;;;;;;1.63;0.85;;;;;;;15.02;67.63;101715.13;5093715;28;20617;-32
2022/10/06 05:56:38;;;;;;;1.90;0.65;;;;;;;15.01;67.46;101716.03;5101090;28;20055;-32
2022/10/06 05:59:04;;;;;;;2.35;0.80;;;;;;;15.00;67.47;101731.06;5110517;28;20047;-32
2022/10/06 06:01:40;;;;;;;3.03;0.80;;;;;;;14.99;67.50;101731.97;5109106;27;20111;-32
2022/10/06 06:04:08;;;;;;;3.30;0.80;;;;;;;14.98;67.51;101734.66;5105067;28;20428;-33
2022/10/06 06:06:39;;;;;;;2.83;0.90;;;;;;;14.98;67.40;101739.97;5107906;28;21260;-32
2022/10/06 06:09:07;;;;;;;3.40;1.25;;;;;;;14.98;67.35;101742.63;5102621;28;20039;-32
2022/10/06 06:11:37;;;;;;;2.08;0.80;;;;;;;14.96;67.29;101750.59;5110711;28;20020;-32
2022/10/06 06:14:06;;;;;;;;;;;;;;;14.97;67.12;101755.00;5094525;28;20445;-32
2022/10/06 06:16:32;;;;;;;1.98;0.70;;;;;;;14.95;66.90;101759.47;5110586;28;19920;-32
2022/10/06 06:18:59;;;;;;;2.50;0.95;;;;;;;14.94;66.68;101763.00;5108127;28;20031;-32
2022/10/06 06:22:08;;;;;;;2.28;0.80;;;;;;;14.94;66.46;101760.34;5106873;28;20110;-33
2022/10/06 06:24:33;;;;;;;4.72;0.90;;;;;;;14.94;66.10;101775.44;5095718;28;20020;-32
2022/10/06 06:26:59;;;;;;;3.17;0.90;;;;;;;14.93;66.07;101782.50;5098481;27;20470;-32
2022/10/06 06:29:24;;;;;;;2.70;0.98;;;;;;;14.93;66.06;101784.25;5108708;28;20108;-32
2022/10/06 06:31:50;;;;;;;2.67;1.13;;;;;;;14.91;66.11;101797.59;5111686;27;20043;-32
2022/10/06 06:34:15;;;;;;;2.22;0.90;;;;;;;14.92;66.26;101793.13;5069563;28;20019;-32
2022/10/06 06:36:45;;;;;;;2.65;1.00;;;;;;;14.91;66.45;101802.00;5108035;28;20062;-32
2022/10/06 06:39:14;;;;;;;2.45;0.80;;;;;;;14.91;66.60;101820.59;5111970;28;20024;-31
2022/10/06 06:41:43;;;;;;;3.35;1.00;;;;;;;14.90;66.82;101826.81;5095622;28;20038;-32
2022/10/06 06:44:12;;;;;;;1.48;0.90;;;;;;;14.89;67.00;101831.25;5114605;28;20398;-32
2022/10/06 06:46:40;;;;;;;1.92;0.80;;;;;;;14.88;67.24;101834.78;5114326;28;20481;-32
2022/10/06 06:49:06;;;;;;;2.22;0.90;;;;;;;14.86;67.51;101839.22;5115347;28;20443;-33
2022/10/06 06:51:34;;;;;;;2.08;1.00;;;;;;;14.85;67.52;101845.44;5093483;28;20391;-32
2022/10/06 06:54:01;;;;;;;2.22;0.80;;;;;;;14.84;67.78;101849.00;5114254;28;20023;-32
2022/10/06 06:56:28;;;;;;;2.00;0.90;;;;;;;14.83;67.88;101842.78;5094966;28;20110;-32
2022/10/06 06:58:53;;;;;;;2.40;0.85;;;;;;;14.85;67.76;101862.28;5114243;28;20024;-32
2022/10/06 07:01:21;;;;;;;2.30;0.95;;;;;;;14.84;67.88;101868.44;5095179;28;20032;-32
2022/10/06 07:03:52;;;;;;;3.05;0.93;;;;;;;14.82;67.94;101880.00;5113660;28;20028;-32
2022/10/06 07:06:17;;;;;;;3.03;1.02;;;;;;;14.82;67.77;101882.63;5087832;27;20043;-32
2022/10/06 07:08:46;;;;;;;3.92;1.20;;;;;;;14.80;67.64;101885.31;5094790;28;20389;-32
2022/10/06 07:11:18;;;;;;;3.53;1.23;;;;;;;14.83;67.53;101892.38;5095588;28;20031;-31
2022/10/06 07:13:45;;;;;;;3.75;1.15;;;;;;;14.81;67.36;101900.34;5113805;28;20024;-32
2022/10/06 07:27:09;;;;;;;3.88;1.30;;;;;;;14.82;66.64;101926.03;5114582;28;20034;-32
2022/10/06 07:29:34;;;;;;;3.47;1.42;;;;;;;14.80;66.67;101925.16;5112985;28;20401;-32
2022/10/06 07:32:00;;;;;;;3.65;1.30;;;;;;;14.83;66.79;101932.19;5091774;28;20020;-32
2022/10/06 07:34:25;;;;;;;4.47;1.45;;;;;;;14.87;66.71;101928.63;5095263;28;20023;-32
2022/10/06 07:36:52;;;;;;;2.90;1.45;;;;;;;14.87;66.45;101928.63;5093051;28;20023;-32
2022/10/06 07:39:19;;;;;;;4.43;1.65;;;;;;;14.84;66.40;101949.94;5112786;28;20023;-32
2022/10/06 07:41:44;;;;;;;3.83;1.90;;;;;;;14.89;66.50;101948.09;5095081;28;20045;-32
2022/10/06 07:44:09;;;;;;;3.65;1.60;;;;;;;14.92;66.43;101958.72;5112865;28;20470;-32
2022/10/06 07:46:35;;;;;;;3.77;1.47;;;;;;;14.94;66.46;101964.88;5106787;28;20080;-32
2022/10/06 07:49:00;;;;;;;4.07;1.63;;;;;;;14.98;66.35;101969.28;5112997;28;20346;-32
2022/10/06 07:51:28;;;;;;;3.47;1.40;;;;;;;15.03;66.18;101968.41;5095210;28;20023;-32
2022/10/06 07:53:54;;;;;;;3.65;1.60;;;;;;;15.04;66.10;101956.88;5111528;28;20866;-32
2022/10/06 07:56:19;;;;;;;3.10;1.40;;;;;;;15.10;66.00;101965.66;5095428;28;20019;-32
2022/10/06 07:58:49;;;;;;;3.10;1.63;;;;;;;15.14;66.04;101963.88;5111419;28;20047;-32
2022/10/06 08:01:18;;;;;;;4.22;1.60;;;;;;;15.19;65.85;101962.06;5113262;28;20076;-32
2022/10/06 08:03:47;;;;;;;3.50;1.60;;;;;;;15.24;65.59;101970.88;5094891;28;20019;-32
2022/10/06 08:06:15;;;;;;;3.50;1.50;;;;;;;15.28;65.37;101977.06;5113325;28;20022;-32
2022/10/06 08:08:42;;;;;;;6.78;2.10;;;;;;;15.29;65.53;101968.19;5106584;28;20024;-32
2022/10/06 08:11:09;;;;;;;4.20;1.77;;;;;;;15.34;65.78;101981.44;5064952;28;20084;-32
2022/10/06 08:13:37;;;;;;;5.97;1.75;;;;;;;15.35;65.29;101978.78;5061766;28;20529;-32
2022/10/06 08:16:09;;;;;;;3.33;1.73;;;;;;;15.39;65.19;101985.84;5091392;28;20039;-32
2022/10/06 08:18:37;;;;;;;3.50;1.70;;;;;;;15.46;65.35;101993.72;5111586;28;20470;-32
2022/10/06 08:21:10;;;;;;;3.83;1.50;;;;;;;15.49;65.43;101997.25;5103473;28;20035;-32
2022/10/06 08:23:39;;;;;;;4.20;1.63;;;;;;;15.54;64.84;101993.69;5093656;28;20032;-32
2022/10/06 08:26:05;;;;;;;6.00;1.45;;;;;;;15.59;64.66;101998.06;5113302;28;20019;-32
2022/10/06 08:28:31;;;;;;;5.53;2.08;;;;;;;15.62;63.98;101999.81;5092326;28;20374;-32
2022/10/06 08:31:02;;;;;;;5.25;1.80;;;;;;;15.67;64.13;102005.97;5111031;28;20026;-32
2022/10/06 08:33:27;;;;;;;7.00;1.90;;;;;;;15.71;63.99;102013.00;5108905;28;20043;-32
2022/10/06 08:35:53;;;;;;;3.70;1.70;;;;;;;15.74;63.31;102014.78;5108087;28;20051;-32
2022/10/06 08:38:20;;;;;;;6.47;2.13;;;;;;;15.78;63.49;102021.84;5108115;28;20378;-32
2022/10/06 08:40:45;;;;;;;5.07;1.60;;;;;;;15.81;63.15;102019.16;5077922;28;20019;-32
2022/10/06 08:43:17;;;;;;;5.70;1.77;;;;;;;15.87;63.01;102028.84;5094664;28;20164;-32
2022/10/06 08:45:46;;;;;;;6.10;1.83;;;;;;;15.93;62.97;102033.22;5077041;28;20052;-32
2022/10/06 08:48:16;;;;;;;4.22;1.67;;;;;;;15.96;62.77;102036.75;5110875;28;20474;-32
2022/10/06 08:51:06;;;;;;;5.60;1.75;;;;;;;16.01;62.84;102045.56;5108176;28;20031;-32
2022/10/06 08:53:45;;;;;;;3.70;1.65;;;;;;;16.03;62.63;102054.44;5112790;28;20039;-32
2022/10/06 08:59:34;;;;;;;5.75;1.90;;;;;;;16.13;62.31;102060.53;5109382;28;20038;-32
2022/10/06 09:02:04;;;;;;;5.55;1.92;;;;;;;16.16;62.30;102048.97;5109884;28;20024;-32
2022/10/06 09:04:30;;;;;;;6.10;2.00;;;;;;;16.24;62.19;102055.09;5111823;28;20041;-32
2022/10/06 09:07:06;;;;;;;6.18;2.00;;;;;;;16.27;62.38;102048.84;5110527;28;20481;-32
2022/10/06 09:09:53;;;;;;;3.40;1.73;;;;;;;16.29;61.91;102055.94;5112651;28;20057;-32
2022/10/06 09:12:33;;;;;;;4.75;1.40;;;;;;;16.35;61.71;102062.97;5112614;28;20046;-32
2022/10/06 09:15:14;;;;;;;4.75;1.80;;;;;;;16.38;62.09;102064.72;5092759;28;20011;-32
2022/10/06 09:20:19;;;;;;;3.15;1.80;;;;;;;16.42;61.68;102071.78;5118579;28;20055;-31
2022/10/06 09:22:46;;;;;;;7.50;1.73;;;;;;;16.42;59.29;102079.75;5094147;28;20027;-31
2022/10/06 09:25:26;;;;;;;5.45;1.60;;;;;;;16.45;57.91;102071.75;5097509;27;20023;-31
2022/10/06 09:27:56;;;;;;;6.55;1.60;;;;;;;16.46;57.95;102083.25;5113027;28;20027;-31
2022/10/06 09:30:23;;;;;;;6.43;2.00;;;;;;;16.48;58.02;102077.03;5100310;28;20105;-31
2022/10/06 09:32:57;;;;;;;4.80;1.60;;;;;;;16.48;57.56;102085.03;5113967;28;20146;-32
2022/10/06 09:35:24;;;;;;;4.53;1.45;;;;;;;16.51;57.62;102087.63;5098600;28;20048;-31
2022/10/06 09:38:03;;;;;;;3.20;1.30;;;;;;;16.51;58.26;102095.63;5112579;28;20027;-32
2022/10/06 09:40:48;;;;;;;4.88;1.70;;;;;;;16.54;58.56;102079.59;5098010;28;20019;-32
2022/10/06 09:43:24;;;;;;;6.05;1.70;;;;;;;16.62;59.07;102089.28;5096264;28;20502;-30
2022/10/06 09:45:51;;;;;;;6.68;1.98;;;;;;;16.70;59.04;102089.22;5070429;28;20061;-32
2022/10/06 09:48:25;;;;;;;4.32;1.40;;;;;;;16.71;58.92;102091.88;5082305;28;20049;-31
2022/10/06 09:51:13;;;;;;;6.05;2.00;;;;;;;16.74;59.46;102091.81;5104774;28;20036;-31
2022/10/06 09:53:40;;;;;;;4.22;1.30;;;;;;;16.75;57.50;102092.69;5091893;28;20042;-31
2022/10/06 09:56:18;;;;;;;6.22;1.90;;;;;;;16.77;57.31;102102.44;5089427;28;20032;-32
2022/10/06 09:58:57;;;;;;;3.58;1.40;;;;;;;16.83;58.08;102100.56;5111698;28;20030;-32
2022/10/06 10:01:28;;;;;;;4.35;1.50;;;;;;;16.91;57.75;102104.06;5072266;28;20027;-32
2022/10/06 10:04:01;;;;;;;3.97;1.33;;;;;;;17.01;56.99;102094.16;5055403;28;20034;-32
2022/10/06 10:06:30;;;;;;;3.97;1.17;;;;;;;17.11;56.78;102105.59;5080489;28;20039;-31
2022/10/06 10:09:21;;;;;;;4.22;1.52;;;;;;;17.20;56.09;102109.91;5113024;28;20019;-31
2022/10/06 10:14:44;;;;;;;4.25;1.50;;;;;;;17.27;56.51;102112.47;5102946;28;20022;-32
2022/10/06 10:17:18;;;;;;;4.70;1.27;;;;;;;17.29;56.02;102115.13;5086113;28;20023;-32
2022/10/06 10:19:46;;;;;;;5.15;1.90;;;;;;;17.35;57.14;102114.13;5091872;28;20039;-32
2022/10/06 10:22:21;;;;;;;4.00;1.58;;;;;;;17.42;56.19;102126.47;5085772;28;20159;-32
2022/10/06 10:25:08;;;;;;;4.43;1.60;;;;;;;17.51;56.33;102110.34;5070138;28;20016;-32
2022/10/06 10:28:03;;;;;;;4.95;1.63;;;;;;;17.59;56.36;102112.00;5106845;28;20239;-32
2022/10/06 10:30:32;;;;;;;4.40;1.42;;;;;;;17.66;56.12;102111.91;5083770;28;20038;-32
2022/10/06 10:33:42;;;;;;;4.32;1.80;;;;;;;17.72;53.63;102126.03;5100823;28;20019;-32
2022/10/06 10:36:12;;;;;;;3.75;1.60;;;;;;;17.78;53.68;102124.13;5015201;28;20029;-32
2022/10/06 10:38:40;;;;;;;5.85;1.40;;;;;;;17.87;54.55;102119.56;5014385;28;20041;-32
2022/10/06 10:41:19;;;;;;;6.10;1.65;;;;;;;17.93;54.43;102116.78;5053346;28;20035;-32
2022/10/06 10:43:54;;;;;;;4.15;1.67;;;;;;;17.97;55.53;102129.16;5092761;28;20023;-31
2022/10/06 10:46:26;;;;;;;8.35;1.95;;;;;;;18.03;55.25;102118.41;5077412;28;20564;-32
2022/10/06 10:49:03;;;;;;;5.70;1.70;;;;;;;18.08;56.07;102119.19;5082537;28;20118;-32
2022/10/06 10:52:00;;;;;;;6.05;1.77;;;;;;;18.16;55.81;102118.19;5092363;28;20048;-32
2022/10/06 10:54:34;;;;;;;5.03;2.10;;;;;;;18.22;55.54;102115.44;5072404;28;20350;-32
2022/10/06 10:56:59;;;;;;;4.30;1.83;;;;;;;18.26;55.28;102111.78;5082340;28;20389;-32
2022/10/06 10:59:55;;;;;;;6.85;2.10;;;;;;;18.32;54.16;102117.03;5086124;28;20028;-31
2022/10/06 11:02:21;;;;;;;3.95;2.00;;;;;;;18.37;54.86;102132.09;5085367;28;20111;-32
2022/10/06 11:04:50;;;;;;;4.28;1.90;;;;;;;18.41;54.73;102133.78;5111360;28;20448;-31
2022/10/06 11:07:22;;;;;;;6.28;1.80;;;;;;;18.44;55.15;102141.75;5107489;28;20035;-32
2022/10/06 11:10:22;;;;;;;8.98;2.33;;;;;;;18.50;54.52;102146.97;5063666;28;20166;-32
2022/10/06 11:12:48;;;;;;;4.30;1.80;;;;;;;18.54;54.45;102145.97;5077216;28;20035;-31
2022/10/06 11:16:01;;;;;;;4.05;1.50;;;;;;;18.57;54.77;102145.94;5111750;28;20433;-31
2022/10/06 11:18:57;;;;;;;5.95;1.92;;;;;;;18.61;54.67;102151.22;5079765;28;20028;-31
2022/10/06 11:21:30;;;;;;;3.65;1.60;;;;;;;18.64;54.54;102144.00;5097379;28;20032;-32
2022/10/06 11:24:03;;;;;;;4.63;1.50;;;;;;;18.70;53.69;102143.00;5107700;28;20620;-32
2022/10/06 11:26:54;;;;;;;5.38;1.73;;;;;;;18.74;53.05;102139.34;5112422;28;20039;-32
2022/10/06 11:29:39;;;;;;;3.63;1.33;;;;;;;18.80;53.65;102127.66;5100649;28;20071;-31
2022/10/06 11:32:45;;;;;;;4.53;1.50;;;;;;;18.85;52.75;102137.34;5099326;28;20024;-31
2022/10/06 11:35:23;;;;;;;6.93;1.85;;;;;;;18.90;54.39;102136.41;5099020;28;20061;-32
2022/10/06 11:38:26;;;;;;;3.72;1.63;;;;;;;18.94;54.11;102130.94;5074975;28;20032;-31
2022/10/06 11:41:10;;;;;;;4.95;1.90;;;;;;;19.00;53.73;102129.94;5089126;28;20389;-32
2022/10/06 11:44:06;;;;;;;6.00;2.13;;;;;;;19.08;52.08;102128.00;5085183;28;20027;-31
2022/10/06 11:46:39;;;;;;;6.22;1.77;;;;;;;19.14;52.57;102128.78;5099366;28;20031;-32
2022/10/06 11:49:30;;;;;;;3.50;1.75;;;;;;;19.16;52.86;102130.50;5080069;28;20030;-31
2022/10/06 11:52:05;;;;;;;6.03;1.83;;;;;;;19.22;52.68;102135.75;5090442;28;20118;-32
2022/10/06 11:54:39;;;;;;;3.90;1.85;;;;;;;19.28;52.53;102132.03;5108873;28;20024;-31
2022/10/06 11:57:22;;;;;;;5.93;1.95;;;;;;;19.31;51.94;102126.59;5106255;28;20023;-32
2022/10/06 12:00:14;;;;;;;4.85;1.67;;;;;;;19.35;51.47;102128.28;5096697;28;20019;-32
2022/10/06 12:02:41;;;;;;;6.72;2.17;;;;;;;19.40;51.28;102132.69;5111923;28;20490;-32